Terminal Aerodrome Forecast
Issued by NWS

Home | Current Version | Previous Version | Text Only | Print | Product List | Glossary On
Versions: 1 2 3 4 5 6 7 8 9 10 11 12 13 14 15 16 17
000
FTUS43 KIND 252000 AAA
TAFLAF
TAF AMD
KLAF 252020Z 2520/2618 22013G23KT P6SM SCT040 BKN060
     FM260100 18007KT P6SM OVC035
     FM260800 18008KT 3SM BR OVC015
     FM261330 18011G21KT P6SM BKN035=

USA.gov is the U.S. government's official web portal to all federal, state and local government web resources and services.